Accueil
METAR-TAF:

METAR-TAF

Aéroports :

Monte Cimone, Italie

latitude: 44-12N, longitude: 010-42E, altitude: 2165 m

Observation

Le bulletin a été fait il y a 1 heure et 13 minutes, à 22:55 UTC
Vent 11 kt de sud avec des rafales jusqu'à 31 kt
Température -3°C
Humidité 100%
Pression 1014 hPa
Visibilité inférieure à 50 m
brouillard givrant

METAR: LIVC 162255Z 18011G31KT 0000 FZFG VV/// M03/M03 Q1014 RMK MON INVIS VAL INVIS VIS MIN 0000

Heure: 01:08 (00:08 UTC)


TAF: absent

Observations et prévisions météorologiques de plus de 4000 aéroports (messages METAR et TAF).

Les stations disponibles sont représentées par des disques jaunes et rouges sur la carte.

Passer la souris dessus pour voir le nom de la station.

Cliquer dessus pour voir les observations et prévisions météorologiques.

Pour changer de carte: cliquez sur les boutons verts avec une croix noire pour zoomer, sur le bouton vert avec un tiret pour effectuer un zoom arrière, ou sur les flèches vertes pour les cartes adjacentes.


METAR-TAF: